sensor_id;sensor_type;location;lat;lon;timestamp;P1;durP1;ratioP1;P2;durP2;ratioP2
45338;SDS011;31071;51.478;5.710;2023-09-19T00:01:08;16.58;;;2.88;;
45338;SDS011;31071;51.478;5.710;2023-09-19T00:03:38;13.35;;;2.70;;
45338;SDS011;31071;51.478;5.710;2023-09-19T00:06:07;17.23;;;3.05;;
45338;SDS011;31071;51.478;5.710;2023-09-19T00:08:35;14.70;;;3.00;;
45338;SDS011;31071;51.478;5.710;2023-09-19T00:18:22;20.60;;;3.42;;
45338;SDS011;31071;51.478;5.710;2023-09-19T00:20:57;15.55;;;2.67;;
45338;SDS011;31071;51.478;5.710;2023-09-19T00:27:24;16.55;;;3.03;;
45338;SDS011;31071;51.478;5.710;2023-09-19T00:29:53;15.00;;;2.72;;
45338;SDS011;31071;51.478;5.710;2023-09-19T00:32:23;16.95;;;3.20;;
45338;SDS011;31071;51.478;5.710;2023-09-19T00:34:50;13.73;;;2.97;;
45338;SDS011;31071;51.478;5.710;2023-09-19T00:37:22;10.27;;;2.53;;
45338;SDS011;31071;51.478;5.710;2023-09-19T00:39:49;16.05;;;2.60;;
45338;SDS011;31071;51.478;5.710;2023-09-19T00:42:26;13.15;;;2.65;;
45338;SDS011;31071;51.478;5.710;2023-09-19T00:44:51;11.95;;;2.90;;
45338;SDS011;31071;51.478;5.710;2023-09-19T00:47:18;16.90;;;2.80;;
45338;SDS011;31071;51.478;5.710;2023-09-19T00:49:45;8.43;;;2.63;;
45338;SDS011;31071;51.478;5.710;2023-09-19T00:52:33;18.02;;;2.67;;
45338;SDS011;31071;51.478;5.710;2023-09-19T00:55:01;18.77;;;2.90;;
45338;SDS011;31071;51.478;5.710;2023-09-19T00:57:43;11.50;;;2.83;;
45338;SDS011;31071;51.478;5.710;2023-09-19T01:00:24;16.23;;;2.50;;
45338;SDS011;31071;51.478;5.710;2023-09-19T01:06:12;12.73;;;2.60;;
45338;SDS011;31071;51.478;5.710;2023-09-19T01:08:38;10.63;;;2.20;;
45338;SDS011;31071;51.478;5.710;2023-09-19T01:17:25;14.00;;;2.58;;
45338;SDS011;31071;51.478;5.710;2023-09-19T01:20:03;12.90;;;2.35;;
45338;SDS011;31071;51.478;5.710;2023-09-19T01:23:09;12.93;;;2.67;;
45338;SDS011;31071;51.478;5.710;2023-09-19T01:29:38;10.63;;;2.45;;
45338;SDS011;31071;51.478;5.710;2023-09-19T01:32:19;11.63;;;2.80;;
45338;SDS011;31071;51.478;5.710;2023-09-19T01:34:47;13.90;;;2.67;;
45338;SDS011;31071;51.478;5.710;2023-09-19T01:37:18;16.08;;;2.72;;
45338;SDS011;31071;51.478;5.710;2023-09-19T01:39:55;16.15;;;3.20;;
45338;SDS011;31071;51.478;5.710;2023-09-19T01:56:12;12.80;;;2.25;;
45338;SDS011;31071;51.478;5.710;2023-09-19T01:58:59;12.10;;;2.45;;
45338;SDS011;31071;51.478;5.710;2023-09-19T02:01:30;18.65;;;3.00;;
45338;SDS011;31071;51.478;5.710;2023-09-19T02:07:19;8.20;;;2.47;;
45338;SDS011;31071;51.478;5.710;2023-09-19T02:09:54;16.67;;;2.58;;
45338;SDS011;31071;51.478;5.710;2023-09-19T02:12:24;18.30;;;2.85;;
45338;SDS011;31071;51.478;5.710;2023-09-19T02:18:32;10.38;;;2.75;;
45338;SDS011;31071;51.478;5.710;2023-09-19T02:27:17;12.27;;;2.70;;
45338;SDS011;31071;51.478;5.710;2023-09-19T02:30:07;15.13;;;2.95;;
45338;SDS011;31071;51.478;5.710;2023-09-19T02:32:45;14.50;;;2.22;;
45338;SDS011;31071;51.478;5.710;2023-09-19T02:35:11;18.15;;;2.47;;
45338;SDS011;31071;51.478;5.710;2023-09-19T02:37:37;17.20;;;2.90;;
45338;SDS011;31071;51.478;5.710;2023-09-19T02:40:05;14.35;;;2.22;;
45338;SDS011;31071;51.478;5.710;2023-09-19T02:42:47;13.02;;;2.30;;
45338;SDS011;31071;51.478;5.710;2023-09-19T02:45:15;12.40;;;2.40;;
45338;SDS011;31071;51.478;5.710;2023-09-19T02:47:43;13.10;;;2.83;;
45338;SDS011;31071;51.478;5.710;2023-09-19T02:50:22;9.88;;;2.20;;
45338;SDS011;31071;51.478;5.710;2023-09-19T02:52:52;15.52;;;2.72;;
45338;SDS011;31071;51.478;5.710;2023-09-19T02:55:21;15.80;;;2.65;;
45338;SDS011;31071;51.478;5.710;2023-09-19T02:57:53;12.95;;;2.50;;
45338;SDS011;31071;51.478;5.710;2023-09-19T03:00:39;14.02;;;2.42;;
45338;SDS011;31071;51.478;5.710;2023-09-19T03:03:07;13.40;;;2.75;;
45338;SDS011;31071;51.478;5.710;2023-09-19T03:08:55;13.23;;;2.25;;
45338;SDS011;31071;51.478;5.710;2023-09-19T03:11:25;12.68;;;2.63;;
45338;SDS011;31071;51.478;5.710;2023-09-19T03:13:51;12.48;;;2.80;;
45338;SDS011;31071;51.478;5.710;2023-09-19T03:16:18;11.48;;;2.20;;
45338;SDS011;31071;51.478;5.710;2023-09-19T03:18:48;12.63;;;2.67;;
45338;SDS011;31071;51.478;5.710;2023-09-19T03:34:50;14.25;;;2.90;;
45338;SDS011;31071;51.478;5.710;2023-09-19T03:37:16;12.35;;;2.50;;
45338;SDS011;31071;51.478;5.710;2023-09-19T03:39:43;14.23;;;2.45;;
45338;SDS011;31071;51.478;5.710;2023-09-19T03:42:15;9.75;;;2.28;;
45338;SDS011;31071;51.478;5.710;2023-09-19T03:44:41;14.73;;;2.67;;
45338;SDS011;31071;51.478;5.710;2023-09-19T03:50:29;11.93;;;2.38;;
45338;SDS011;31071;51.478;5.710;2023-09-19T03:52:58;12.55;;;2.25;;
45338;SDS011;31071;51.478;5.710;2023-09-19T03:55:24;10.80;;;2.22;;
45338;SDS011;31071;51.478;5.710;2023-09-19T03:57:51;12.05;;;2.17;;
45338;SDS011;31071;51.478;5.710;2023-09-19T04:00:25;13.05;;;2.38;;
45338;SDS011;31071;51.478;5.710;2023-09-19T04:06:17;13.27;;;2.83;;
45338;SDS011;31071;51.478;5.710;2023-09-19T04:08:44;9.45;;;2.33;;
45338;SDS011;31071;51.478;5.710;2023-09-19T04:11:10;12.95;;;2.30;;
45338;SDS011;31071;51.478;5.710;2023-09-19T04:16:59;12.52;;;2.78;;
45338;SDS011;31071;51.478;5.710;2023-09-19T04:19:26;14.20;;;2.78;;
45338;SDS011;31071;51.478;5.710;2023-09-19T04:21:51;12.48;;;2.50;;
45338;SDS011;31071;51.478;5.710;2023-09-19T04:24:17;8.88;;;2.38;;
45338;SDS011;31071;51.478;5.710;2023-09-19T04:26:44;15.68;;;2.50;;
45338;SDS011;31071;51.478;5.710;2023-09-19T04:29:12;12.57;;;2.83;;
45338;SDS011;31071;51.478;5.710;2023-09-19T04:31:39;10.82;;;2.67;;
45338;SDS011;31071;51.478;5.710;2023-09-19T04:34:06;17.00;;;2.45;;
45338;SDS011;31071;51.478;5.710;2023-09-19T04:36:35;13.77;;;2.67;;
45338;SDS011;31071;51.478;5.710;2023-09-19T04:39:02;12.25;;;2.83;;
45338;SDS011;31071;51.478;5.710;2023-09-19T04:41:36;17.67;;;3.25;;
45338;SDS011;31071;51.478;5.710;2023-09-19T04:44:07;15.40;;;2.60;;
45338;SDS011;31071;51.478;5.710;2023-09-19T04:46:33;16.67;;;2.70;;
45338;SDS011;31071;51.478;5.710;2023-09-19T04:55:44;13.20;;;2.95;;
45338;SDS011;31071;51.478;5.710;2023-09-19T04:58:11;11.98;;;2.78;;
45338;SDS011;31071;51.478;5.710;2023-09-19T05:00:36;10.50;;;3.10;;
45338;SDS011;31071;51.478;5.710;2023-09-19T05:03:04;17.42;;;2.88;;
45338;SDS011;31071;51.478;5.710;2023-09-19T05:05:33;17.13;;;2.90;;
45338;SDS011;31071;51.478;5.710;2023-09-19T05:07:59;14.25;;;2.60;;
45338;SDS011;31071;51.478;5.710;2023-09-19T05:10:33;12.80;;;2.65;;
45338;SDS011;31071;51.478;5.710;2023-09-19T05:13:04;16.33;;;2.97;;
45338;SDS011;31071;51.478;5.710;2023-09-19T05:15:35;11.15;;;2.38;;
45338;SDS011;31071;51.478;5.710;2023-09-19T05:21:23;12.65;;;2.60;;
45338;SDS011;31071;51.478;5.710;2023-09-19T05:30:34;13.82;;;2.63;;
45338;SDS011;31071;51.478;5.710;2023-09-19T05:33:08;9.77;;;2.05;;
45338;SDS011;31071;51.478;5.710;2023-09-19T05:35:45;9.52;;;2.30;;
45338;SDS011;31071;51.478;5.710;2023-09-19T05:38:12;14.07;;;3.38;;
45338;SDS011;31071;51.478;5.710;2023-09-19T05:40:44;11.90;;;2.97;;
45338;SDS011;31071;51.478;5.710;2023-09-19T05:43:13;10.90;;;2.42;;
45338;SDS011;31071;51.478;5.710;2023-09-19T05:45:43;13.07;;;2.55;;
45338;SDS011;31071;51.478;5.710;2023-09-19T05:48:23;13.20;;;2.45;;
45338;SDS011;31071;51.478;5.710;2023-09-19T05:51:07;10.65;;;2.80;;
45338;SDS011;31071;51.478;5.710;2023-09-19T05:53:42;14.38;;;3.00;;
45338;SDS011;31071;51.478;5.710;2023-09-19T05:56:08;12.00;;;2.88;;
45338;SDS011;31071;51.478;5.710;2023-09-19T06:04:18;7.63;;;2.45;;
45338;SDS011;31071;51.478;5.710;2023-09-19T06:06:50;17.17;;;3.20;;
45338;SDS011;31071;51.478;5.710;2023-09-19T06:15:31;11.52;;;2.65;;
45338;SDS011;31071;51.478;5.710;2023-09-19T06:17:58;12.93;;;3.72;;
45338;SDS011;31071;51.478;5.710;2023-09-19T06:20:25;10.00;;;2.67;;
45338;SDS011;31071;51.478;5.710;2023-09-19T06:22:56;12.57;;;2.67;;
45338;SDS011;31071;51.478;5.710;2023-09-19T06:25:23;19.30;;;2.97;;
45338;SDS011;31071;51.478;5.710;2023-09-19T06:31:11;12.85;;;2.42;;
45338;SDS011;31071;51.478;5.710;2023-09-19T06:47:10;14.90;;;3.67;;
45338;SDS011;31071;51.478;5.710;2023-09-19T06:50:15;13.63;;;2.33;;
45338;SDS011;31071;51.478;5.710;2023-09-19T07:00:01;16.88;;;3.00;;
45338;SDS011;31071;51.478;5.710;2023-09-19T07:09:34;18.52;;;3.17;;
45338;SDS011;31071;51.478;5.710;2023-09-19T07:12:05;13.80;;;2.67;;
45338;SDS011;31071;51.478;5.710;2023-09-19T07:17:59;12.95;;;2.70;;
45338;SDS011;31071;51.478;5.710;2023-09-19T07:20:26;15.27;;;2.90;;
45338;SDS011;31071;51.478;5.710;2023-09-19T07:23:04;19.25;;;3.05;;
45338;SDS011;31071;51.478;5.710;2023-09-19T07:25:41;16.40;;;3.03;;
45338;SDS011;31071;51.478;5.710;2023-09-19T07:28:11;15.13;;;2.58;;
45338;SDS011;31071;51.478;5.710;2023-09-19T07:30:40;13.05;;;2.83;;
45338;SDS011;31071;51.478;5.710;2023-09-19T07:36:34;13.98;;;3.30;;
45338;SDS011;31071;51.478;5.710;2023-09-19T07:42:25;14.07;;;2.80;;
45338;SDS011;31071;51.478;5.710;2023-09-19T07:44:52;15.80;;;2.90;;
45338;SDS011;31071;51.478;5.710;2023-09-19T07:51:01;10.43;;;2.45;;
45338;SDS011;31071;51.478;5.710;2023-09-19T07:53:48;13.70;;;2.95;;
45338;SDS011;31071;51.478;5.710;2023-09-19T07:56:40;13.93;;;3.15;;
45338;SDS011;31071;51.478;5.710;2023-09-19T07:59:15;16.60;;;3.42;;
45338;SDS011;31071;51.478;5.710;2023-09-19T08:01:44;9.52;;;2.42;;
45338;SDS011;31071;51.478;5.710;2023-09-19T08:04:20;14.13;;;2.80;;
45338;SDS011;31071;51.478;5.710;2023-09-19T08:06:52;16.85;;;2.80;;
45338;SDS011;31071;51.478;5.710;2023-09-19T08:09:27;9.43;;;2.42;;
45338;SDS011;31071;51.478;5.710;2023-09-19T08:16:17;16.20;;;2.93;;
45338;SDS011;31071;51.478;5.710;2023-09-19T08:18:53;7.63;;;2.30;;
45338;SDS011;31071;51.478;5.710;2023-09-19T08:21:23;19.05;;;3.55;;
45338;SDS011;31071;51.478;5.710;2023-09-19T08:23:56;15.85;;;2.92;;
45338;SDS011;31071;51.478;5.710;2023-09-19T08:29:42;15.35;;;2.67;;
45338;SDS011;31071;51.478;5.710;2023-09-19T08:32:14;10.68;;;2.60;;
45338;SDS011;31071;51.478;5.710;2023-09-19T08:35:12;19.70;;;2.92;;
45338;SDS011;31071;51.478;5.710;2023-09-19T08:38:13;8.45;;;2.63;;
45338;SDS011;31071;51.478;5.710;2023-09-19T08:40:44;12.07;;;2.38;;
45338;SDS011;31071;51.478;5.710;2023-09-19T08:43:22;13.80;;;3.05;;
45338;SDS011;31071;51.478;5.710;2023-09-19T08:45:51;12.23;;;2.42;;
45338;SDS011;31071;51.478;5.710;2023-09-19T09:01:51;16.88;;;2.90;;
45338;SDS011;31071;51.478;5.710;2023-09-19T09:08:02;14.93;;;2.97;;
45338;SDS011;31071;51.478;5.710;2023-09-19T09:10:37;13.70;;;2.80;;
45338;SDS011;31071;51.478;5.710;2023-09-19T09:13:15;16.25;;;3.30;;
45338;SDS011;31071;51.478;5.710;2023-09-19T09:28:52;18.70;;;3.13;;
45338;SDS011;31071;51.478;5.710;2023-09-19T09:31:34;14.75;;;2.72;;
45338;SDS011;31071;51.478;5.710;2023-09-19T09:34:33;13.50;;;2.78;;
45338;SDS011;31071;51.478;5.710;2023-09-19T09:37:02;12.40;;;2.78;;
45338;SDS011;31071;51.478;5.710;2023-09-19T09:39:30;14.73;;;3.05;;
45338;SDS011;31071;51.478;5.710;2023-09-19T09:41:59;13.43;;;3.08;;
45338;SDS011;31071;51.478;5.710;2023-09-19T09:44:25;13.80;;;2.80;;
45338;SDS011;31071;51.478;5.710;2023-09-19T09:46:55;14.60;;;3.08;;
45338;SDS011;31071;51.478;5.710;2023-09-19T09:53:01;11.65;;;2.78;;
45338;SDS011;31071;51.478;5.710;2023-09-19T09:56:17;22.20;;;2.88;;
45338;SDS011;31071;51.478;5.710;2023-09-19T09:58:27;15.32;;;2.88;;
45338;SDS011;31071;51.478;5.710;2023-09-19T10:00:59;11.15;;;2.35;;
45338;SDS011;31071;51.478;5.710;2023-09-19T10:03:30;10.82;;;2.70;;
45338;SDS011;31071;51.478;5.710;2023-09-19T10:06:00;14.15;;;2.70;;
45338;SDS011;31071;51.478;5.710;2023-09-19T10:09:04;8.73;;;2.22;;
45338;SDS011;31071;51.478;5.710;2023-09-19T10:12:18;10.18;;;2.65;;
45338;SDS011;31071;51.478;5.710;2023-09-19T10:14:47;7.55;;;2.50;;
45338;SDS011;31071;51.478;5.710;2023-09-19T10:17:16;12.23;;;2.60;;
45338;SDS011;31071;51.478;5.710;2023-09-19T10:22:25;8.50;;;2.13;;
45338;SDS011;31071;51.478;5.710;2023-09-19T10:24:56;9.75;;;2.40;;
45338;SDS011;31071;51.478;5.710;2023-09-19T10:27:31;11.63;;;2.47;;
45338;SDS011;31071;51.478;5.710;2023-09-19T10:30:03;11.02;;;2.20;;
45338;SDS011;31071;51.478;5.710;2023-09-19T10:32:32;14.00;;;2.58;;
45338;SDS011;31071;51.478;5.710;2023-09-19T10:35:02;10.80;;;2.47;;
45338;SDS011;31071;51.478;5.710;2023-09-19T10:37:30;8.75;;;2.13;;
45338;SDS011;31071;51.478;5.710;2023-09-19T10:39:59;10.93;;;2.22;;
45338;SDS011;31071;51.478;5.710;2023-09-19T10:45:36;10.30;;;2.13;;
45338;SDS011;31071;51.478;5.710;2023-09-19T10:48:04;15.57;;;2.75;;
45338;SDS011;31071;51.478;5.710;2023-09-19T10:50:37;11.65;;;2.83;;
45338;SDS011;31071;51.478;5.710;2023-09-19T10:53:49;12.52;;;2.28;;
45338;SDS011;31071;51.478;5.710;2023-09-19T10:56:19;12.80;;;2.38;;
45338;SDS011;31071;51.478;5.710;2023-09-19T10:59:05;9.82;;;2.45;;
45338;SDS011;31071;51.478;5.710;2023-09-19T11:01:53;10.27;;;2.83;;
45338;SDS011;31071;51.478;5.710;2023-09-19T11:04:33;12.32;;;2.42;;
45338;SDS011;31071;51.478;5.710;2023-09-19T11:07:04;7.75;;;2.10;;
45338;SDS011;31071;51.478;5.710;2023-09-19T11:09:53;13.13;;;2.58;;
45338;SDS011;31071;51.478;5.710;2023-09-19T11:26:56;11.18;;;2.20;;
45338;SDS011;31071;51.478;5.710;2023-09-19T11:36:08;6.47;;;1.90;;
45338;SDS011;31071;51.478;5.710;2023-09-19T11:47:28;4.60;;;1.77;;
45338;SDS011;31071;51.478;5.710;2023-09-19T11:50:15;9.02;;;1.80;;
45338;SDS011;31071;51.478;5.710;2023-09-19T11:52:45;5.28;;;1.50;;
45338;SDS011;31071;51.478;5.710;2023-09-19T11:55:12;8.95;;;1.70;;
45338;SDS011;31071;51.478;5.710;2023-09-19T11:57:47;9.65;;;1.85;;
45338;SDS011;31071;51.478;5.710;2023-09-19T12:00:19;6.70;;;1.77;;
45338;SDS011;31071;51.478;5.710;2023-09-19T12:02:47;6.45;;;1.85;;
45338;SDS011;31071;51.478;5.710;2023-09-19T12:05:27;6.72;;;1.63;;
45338;SDS011;31071;51.478;5.710;2023-09-19T12:07:54;6.57;;;1.63;;
45338;SDS011;31071;51.478;5.710;2023-09-19T12:10:20;7.40;;;1.65;;
45338;SDS011;31071;51.478;5.710;2023-09-19T12:16:20;5.53;;;1.33;;
45338;SDS011;31071;51.478;5.710;2023-09-19T12:18:47;8.20;;;1.90;;
45338;SDS011;31071;51.478;5.710;2023-09-19T12:24:37;7.75;;;1.33;;
45338;SDS011;31071;51.478;5.710;2023-09-19T12:30:29;6.00;;;1.30;;
45338;SDS011;31071;51.478;5.710;2023-09-19T12:32:58;3.42;;;1.27;;
45338;SDS011;31071;51.478;5.710;2023-09-19T12:38:24;5.32;;;1.40;;
45338;SDS011;31071;51.478;5.710;2023-09-19T12:40:57;7.10;;;1.38;;
45338;SDS011;31071;51.478;5.710;2023-09-19T12:43:28;5.30;;;1.55;;
45338;SDS011;31071;51.478;5.710;2023-09-19T12:45:58;4.25;;;1.50;;
45338;SDS011;31071;51.478;5.710;2023-09-19T12:48:25;5.45;;;1.20;;
45338;SDS011;31071;51.478;5.710;2023-09-19T12:53:34;5.63;;;1.13;;
45338;SDS011;31071;51.478;5.710;2023-09-19T12:56:09;6.18;;;1.27;;
45338;SDS011;31071;51.478;5.710;2023-09-19T13:01:21;4.57;;;1.63;;
45338;SDS011;31071;51.478;5.710;2023-09-19T13:10:09;3.05;;;1.20;;
45338;SDS011;31071;51.478;5.710;2023-09-19T13:12:36;3.35;;;1.00;;
45338;SDS011;31071;51.478;5.710;2023-09-19T13:18:29;6.38;;;1.23;;
45338;SDS011;31071;51.478;5.710;2023-09-19T13:21:08;6.10;;;0.90;;
45338;SDS011;31071;51.478;5.710;2023-09-19T13:23:51;4.70;;;0.90;;
45338;SDS011;31071;51.478;5.710;2023-09-19T13:26:17;4.65;;;1.10;;
45338;SDS011;31071;51.478;5.710;2023-09-19T13:28:44;7.47;;;1.20;;
45338;SDS011;31071;51.478;5.710;2023-09-19T13:34:37;6.82;;;1.33;;
45338;SDS011;31071;51.478;5.710;2023-09-19T13:37:07;6.00;;;1.20;;
45338;SDS011;31071;51.478;5.710;2023-09-19T13:39:32;6.35;;;0.95;;
45338;SDS011;31071;51.478;5.710;2023-09-19T13:42:00;3.65;;;1.00;;
45338;SDS011;31071;51.478;5.710;2023-09-19T13:44:29;4.15;;;1.20;;
45338;SDS011;31071;51.478;5.710;2023-09-19T13:46:59;3.10;;;1.20;;
45338;SDS011;31071;51.478;5.710;2023-09-19T13:49:34;3.65;;;0.90;;
45338;SDS011;31071;51.478;5.710;2023-09-19T13:52:01;2.53;;;0.85;;
45338;SDS011;31071;51.478;5.710;2023-09-19T13:54:30;3.80;;;0.95;;
45338;SDS011;31071;51.478;5.710;2023-09-19T13:56:58;3.38;;;1.10;;
45338;SDS011;31071;51.478;5.710;2023-09-19T13:59:23;3.30;;;0.80;;
45338;SDS011;31071;51.478;5.710;2023-09-19T14:01:55;4.28;;;1.10;;
45338;SDS011;31071;51.478;5.710;2023-09-19T14:04:20;4.35;;;1.25;;
45338;SDS011;31071;51.478;5.710;2023-09-19T14:06:48;2.22;;;0.90;;
45338;SDS011;31071;51.478;5.710;2023-09-19T14:09:13;5.15;;;1.20;;
45338;SDS011;31071;51.478;5.710;2023-09-19T14:11:41;5.45;;;0.93;;
45338;SDS011;31071;51.478;5.710;2023-09-19T14:14:07;2.83;;;0.65;;
45338;SDS011;31071;51.478;5.710;2023-09-19T14:16:33;4.72;;;0.90;;
45338;SDS011;31071;51.478;5.710;2023-09-19T14:19:00;7.18;;;1.10;;
45338;SDS011;31071;51.478;5.710;2023-09-19T14:21:26;5.95;;;0.98;;
45338;SDS011;31071;51.478;5.710;2023-09-19T14:23:52;6.80;;;1.20;;
45338;SDS011;31071;51.478;5.710;2023-09-19T14:26:20;7.43;;;1.02;;
45338;SDS011;31071;51.478;5.710;2023-09-19T14:28:48;5.22;;;1.55;;
45338;SDS011;31071;51.478;5.710;2023-09-19T14:31:14;6.47;;;1.45;;
45338;SDS011;31071;51.478;5.710;2023-09-19T14:33:40;5.10;;;0.88;;
45338;SDS011;31071;51.478;5.710;2023-09-19T14:36:07;4.63;;;0.90;;
45338;SDS011;31071;51.478;5.710;2023-09-19T14:41:56;4.05;;;1.40;;
45338;SDS011;31071;51.478;5.710;2023-09-19T14:44:23;3.33;;;1.13;;
45338;SDS011;31071;51.478;5.710;2023-09-19T14:46:53;4.38;;;1.00;;
45338;SDS011;31071;51.478;5.710;2023-09-19T14:49:20;4.75;;;1.13;;
45338;SDS011;31071;51.478;5.710;2023-09-19T14:51:46;4.63;;;1.02;;
45338;SDS011;31071;51.478;5.710;2023-09-19T14:54:19;4.68;;;1.10;;
45338;SDS011;31071;51.478;5.710;2023-09-19T15:00:08;6.97;;;1.00;;
45338;SDS011;31071;51.478;5.710;2023-09-19T15:02:38;5.07;;;0.90;;
45338;SDS011;31071;51.478;5.710;2023-09-19T15:08:28;4.97;;;1.23;;
45338;SDS011;31071;51.478;5.710;2023-09-19T15:11:06;4.15;;;0.90;;
45338;SDS011;31071;51.478;5.710;2023-09-19T15:13:32;5.70;;;1.17;;
45338;SDS011;31071;51.478;5.710;2023-09-19T15:16:04;3.72;;;1.23;;
45338;SDS011;31071;51.478;5.710;2023-09-19T15:18:38;4.80;;;1.33;;
45338;SDS011;31071;51.478;5.710;2023-09-19T15:21:12;5.32;;;1.17;;
45338;SDS011;31071;51.478;5.710;2023-09-19T15:23:40;3.17;;;1.20;;
45338;SDS011;31071;51.478;5.710;2023-09-19T15:26:09;4.95;;;1.27;;
45338;SDS011;31071;51.478;5.710;2023-09-19T15:28:45;4.32;;;1.10;;
45338;SDS011;31071;51.478;5.710;2023-09-19T15:31:13;4.22;;;1.17;;
45338;SDS011;31071;51.478;5.710;2023-09-19T15:37:01;1.70;;;1.05;;
45338;SDS011;31071;51.478;5.710;2023-09-19T15:39:29;6.88;;;1.58;;
45338;SDS011;31071;51.478;5.710;2023-09-19T15:42:02;7.97;;;1.60;;
45338;SDS011;31071;51.478;5.710;2023-09-19T15:44:28;4.82;;;1.23;;
45338;SDS011;31071;51.478;5.710;2023-09-19T15:50:16;7.65;;;1.50;;
45338;SDS011;31071;51.478;5.710;2023-09-19T15:52:51;2.72;;;1.25;;
45338;SDS011;31071;51.478;5.710;2023-09-19T15:58:34;5.28;;;1.27;;
45338;SDS011;31071;51.478;5.710;2023-09-19T16:01:07;4.45;;;1.15;;
45338;SDS011;31071;51.478;5.710;2023-09-19T16:07:14;2.67;;;1.23;;
45338;SDS011;31071;51.478;5.710;2023-09-19T16:09:43;6.30;;;1.45;;
45338;SDS011;31071;51.478;5.710;2023-09-19T16:12:10;4.20;;;1.38;;
45338;SDS011;31071;51.478;5.710;2023-09-19T16:14:39;3.67;;;1.10;;
45338;SDS011;31071;51.478;5.710;2023-09-19T16:20:27;5.07;;;1.40;;
45338;SDS011;31071;51.478;5.710;2023-09-19T16:22:55;4.53;;;1.05;;
45338;SDS011;31071;51.478;5.710;2023-09-19T16:25:21;5.65;;;1.40;;
45338;SDS011;31071;51.478;5.710;2023-09-19T16:27:46;7.80;;;1.20;;
45338;SDS011;31071;51.478;5.710;2023-09-19T16:30:12;8.80;;;1.48;;
45338;SDS011;31071;51.478;5.710;2023-09-19T16:32:38;4.63;;;1.20;;
45338;SDS011;31071;51.478;5.710;2023-09-19T16:35:04;7.70;;;1.33;;
45338;SDS011;31071;51.478;5.710;2023-09-19T16:37:30;4.68;;;1.60;;
45338;SDS011;31071;51.478;5.710;2023-09-19T16:39:56;5.75;;;1.52;;
45338;SDS011;31071;51.478;5.710;2023-09-19T16:42:23;2.88;;;1.15;;
45338;SDS011;31071;51.478;5.710;2023-09-19T16:44:49;4.45;;;1.58;;
45338;SDS011;31071;51.478;5.710;2023-09-19T16:47:16;2.45;;;1.58;;
45338;SDS011;31071;51.478;5.710;2023-09-19T16:49:46;5.88;;;1.60;;
45338;SDS011;31071;51.478;5.710;2023-09-19T16:52:11;6.28;;;1.63;;
45338;SDS011;31071;51.478;5.710;2023-09-19T17:01:21;4.03;;;1.50;;
45338;SDS011;31071;51.478;5.710;2023-09-19T17:03:49;12.40;;;2.13;;
45338;SDS011;31071;51.478;5.710;2023-09-19T17:09:36;5.18;;;1.80;;
45338;SDS011;31071;51.478;5.710;2023-09-19T17:12:03;5.82;;;2.00;;
45338;SDS011;31071;51.478;5.710;2023-09-19T17:14:33;6.28;;;2.00;;
45338;SDS011;31071;51.478;5.710;2023-09-19T17:17:02;9.80;;;2.53;;
45338;SDS011;31071;51.478;5.710;2023-09-19T17:22:50;6.82;;;2.22;;
45338;SDS011;31071;51.478;5.710;2023-09-19T17:25:16;7.22;;;2.08;;
45338;SDS011;31071;51.478;5.710;2023-09-19T17:27:42;5.95;;;1.73;;
45338;SDS011;31071;51.478;5.710;2023-09-19T17:30:11;5.50;;;1.98;;
45338;SDS011;31071;51.478;5.710;2023-09-19T17:32:41;3.83;;;1.40;;
45338;SDS011;31071;51.478;5.710;2023-09-19T17:39:06;4.72;;;1.95;;
45338;SDS011;31071;51.478;5.710;2023-09-19T17:41:34;7.65;;;2.10;;
45338;SDS011;31071;51.478;5.710;2023-09-19T17:44:00;5.97;;;2.25;;
45338;SDS011;31071;51.478;5.710;2023-09-19T17:46:26;5.38;;;1.58;;
45338;SDS011;31071;51.478;5.710;2023-09-19T17:48:55;6.38;;;1.67;;
45338;SDS011;31071;51.478;5.710;2023-09-19T17:51:23;5.35;;;1.65;;
45338;SDS011;31071;51.478;5.710;2023-09-19T17:57:13;6.65;;;1.98;;
45338;SDS011;31071;51.478;5.710;2023-09-19T17:59:40;4.82;;;1.60;;
45338;SDS011;31071;51.478;5.710;2023-09-19T18:02:07;3.92;;;1.60;;
45338;SDS011;31071;51.478;5.710;2023-09-19T18:04:37;4.22;;;1.60;;
45338;SDS011;31071;51.478;5.710;2023-09-19T18:13:40;5.05;;;1.42;;
45338;SDS011;31071;51.478;5.710;2023-09-19T18:16:09;4.75;;;1.63;;
45338;SDS011;31071;51.478;5.710;2023-09-19T18:18:37;4.25;;;1.30;;
45338;SDS011;31071;51.478;5.710;2023-09-19T18:21:06;7.18;;;1.63;;
45338;SDS011;31071;51.478;5.710;2023-09-19T18:23:34;7.70;;;1.80;;
45338;SDS011;31071;51.478;5.710;2023-09-19T18:26:00;6.53;;;1.40;;
45338;SDS011;31071;51.478;5.710;2023-09-19T18:28:30;3.75;;;1.60;;
45338;SDS011;31071;51.478;5.710;2023-09-19T18:30:57;6.25;;;1.70;;
45338;SDS011;31071;51.478;5.710;2023-09-19T18:33:24;5.43;;;1.75;;
45338;SDS011;31071;51.478;5.710;2023-09-19T18:35:52;4.55;;;1.58;;
45338;SDS011;31071;51.478;5.710;2023-09-19T18:38:19;7.63;;;1.60;;
45338;SDS011;31071;51.478;5.710;2023-09-19T18:40:50;3.70;;;1.30;;
45338;SDS011;31071;51.478;5.710;2023-09-19T18:43:16;5.25;;;1.60;;
45338;SDS011;31071;51.478;5.710;2023-09-19T18:45:44;6.63;;;1.70;;
45338;SDS011;31071;51.478;5.710;2023-09-19T18:48:20;5.45;;;1.80;;
45338;SDS011;31071;51.478;5.710;2023-09-19T18:50:49;8.13;;;1.80;;
45338;SDS011;31071;51.478;5.710;2023-09-19T18:53:18;4.68;;;1.70;;
45338;SDS011;31071;51.478;5.710;2023-09-19T18:55:47;7.72;;;1.80;;
45338;SDS011;31071;51.478;5.710;2023-09-19T18:58:14;4.55;;;1.77;;
45338;SDS011;31071;51.478;5.710;2023-09-19T19:00:40;9.00;;;1.73;;
45338;SDS011;31071;51.478;5.710;2023-09-19T19:03:06;6.22;;;1.45;;
45338;SDS011;31071;51.478;5.710;2023-09-19T19:05:32;9.00;;;1.73;;
45338;SDS011;31071;51.478;5.710;2023-09-19T19:08:02;4.90;;;1.60;;
45338;SDS011;31071;51.478;5.710;2023-09-19T19:13:53;7.15;;;1.60;;
45338;SDS011;31071;51.478;5.710;2023-09-19T19:16:25;4.43;;;1.63;;
45338;SDS011;31071;51.478;5.710;2023-09-19T19:19:02;9.13;;;2.35;;
45338;SDS011;31071;51.478;5.710;2023-09-19T19:24:58;6.18;;;1.95;;
45338;SDS011;31071;51.478;5.710;2023-09-19T19:27:27;8.63;;;1.73;;
45338;SDS011;31071;51.478;5.710;2023-09-19T19:29:54;7.50;;;1.90;;
45338;SDS011;31071;51.478;5.710;2023-09-19T19:32:21;10.40;;;1.70;;
45338;SDS011;31071;51.478;5.710;2023-09-19T19:34:52;5.13;;;1.42;;
45338;SDS011;31071;51.478;5.710;2023-09-19T19:37:22;5.85;;;1.88;;
45338;SDS011;31071;51.478;5.710;2023-09-19T19:39:49;6.90;;;1.80;;
45338;SDS011;31071;51.478;5.710;2023-09-19T19:42:15;9.70;;;1.88;;
45338;SDS011;31071;51.478;5.710;2023-09-19T19:44:44;9.65;;;1.75;;
45338;SDS011;31071;51.478;5.710;2023-09-19T19:47:19;6.25;;;1.70;;
45338;SDS011;31071;51.478;5.710;2023-09-19T19:49:44;6.45;;;1.75;;
45338;SDS011;31071;51.478;5.710;2023-09-19T19:55:23;4.85;;;1.67;;
45338;SDS011;31071;51.478;5.710;2023-09-19T20:01:14;6.72;;;1.60;;
45338;SDS011;31071;51.478;5.710;2023-09-19T20:03:40;7.22;;;1.80;;
45338;SDS011;31071;51.478;5.710;2023-09-19T20:06:10;8.32;;;2.00;;
45338;SDS011;31071;51.478;5.710;2023-09-19T20:08:37;6.22;;;1.80;;
45338;SDS011;31071;51.478;5.710;2023-09-19T20:11:03;5.82;;;1.90;;
45338;SDS011;31071;51.478;5.710;2023-09-19T20:13:31;11.18;;;2.10;;
45338;SDS011;31071;51.478;5.710;2023-09-19T20:15:59;5.57;;;1.67;;
45338;SDS011;31071;51.478;5.710;2023-09-19T20:18:25;5.13;;;1.50;;
45338;SDS011;31071;51.478;5.710;2023-09-19T20:20:51;5.55;;;1.70;;
45338;SDS011;31071;51.478;5.710;2023-09-19T20:26:05;5.90;;;1.60;;
45338;SDS011;31071;51.478;5.710;2023-09-19T20:28:32;5.50;;;1.80;;
45338;SDS011;31071;51.478;5.710;2023-09-19T20:34:20;6.03;;;1.63;;
45338;SDS011;31071;51.478;5.710;2023-09-19T20:36:46;8.20;;;2.00;;